KMOT

Minot International Airport

Minot, North Dakota, USA
KMOT 160531Z 1606/1706 VRB04KT P6SM SKC FM161400 12006KT P6SM BKN030 FM161800 18008KT P6SM OVC025 FM170300 VRB03KT P6SM OVC015
Issued Valid From Valid To
Jan-16 @ 05:31 UTC
(24 minutes ago)
Jan-16 @ 06:00 UTC
(in 5 minutes)
Jan-17 @ 06:00 UTC
(in 24 hours)
Jan-16 @ 06:00 to Jan-16 @ 14:00
KMOT 160531Z 1606/1706 VRB04KT P6SM SKC
Wind Visibility Clouds
Variable at 4 knots Greater than 6 miles
  • Clear skies
From Jan-16 @ 14:00 to Jan-16 @ 18:00
FM161400 12006KT P6SM BKN030
Wind Visibility Clouds
120° at 6 knots Greater than 6 miles
  • Broken at 3,000' AGL
From Jan-16 @ 18:00 to Jan-17 @ 03:00
FM161800 18008KT P6SM OVC025
Wind Visibility Clouds
180° at 8 knots Greater than 6 miles
  • Overcast at 2,500' AGL
From Jan-17 @ 03:00 to Jan-17 @ 06:00
FM170300 VRB03KT P6SM OVC015
Wind Visibility Clouds
Variable at 3 knots Greater than 6 miles
  • Overcast at 1,500' AGL
KMOT 160531Z 1606/1706 VRB04KT P6SM SKC FM161400 12006KT P6SM BKN030 FM161800 18008KT P6SM OVC025 FM170300 VRB03KT P6SM OVC015
Issued Jan-16 @ 05:31 UTC
(24 minutes ago)
Valid From Jan-16 @ 06:00 UTC
(in 5 minutes)
Valid To Jan-17 @ 06:00 UTC
(in 24 hours)
Jan-16 @ 06:00 - Jan-16 @ 14:00
Wind Visibility
Variable at 4 knots Greater than 6 miles
Clouds
  • Clear skies
From Jan-16 @ 14:00 - Jan-16 @ 18:00
Wind Visibility
120° at 6 knots Greater than 6 miles
Clouds
  • Broken at 3,000' AGL
From Jan-16 @ 18:00 - Jan-17 @ 03:00
Wind Visibility
180° at 8 knots Greater than 6 miles
Clouds
  • Overcast at 2,500' AGL
From Jan-17 @ 03:00 - Jan-17 @ 06:00
Wind Visibility
Variable at 3 knots Greater than 6 miles
Clouds
  • Overcast at 1,500' AGL